createdAt,value
2022-10-23T00:00:12.702Z,11.60
2022-10-23T00:02:14.694Z,11.59
2022-10-23T00:04:20.349Z,11.58
2022-10-23T00:06:23.006Z,11.57
2022-10-23T00:08:24.864Z,11.56
2022-10-23T00:10:28.196Z,11.55
2022-10-23T00:12:30.225Z,11.53
2022-10-23T00:14:33.205Z,11.54
2022-10-23T00:16:35.644Z,11.51
2022-10-23T00:18:38.626Z,11.54
2022-10-23T00:20:40.642Z,11.52
2022-10-23T00:22:42.722Z,11.52
2022-10-23T00:24:45.571Z,11.53
2022-10-23T00:26:50.783Z,11.53
2022-10-23T00:28:54.559Z,11.53
2022-10-23T00:30:57.458Z,11.53
2022-10-23T00:32:59.299Z,11.55
2022-10-23T00:35:01.239Z,11.58
2022-10-23T00:37:03.133Z,11.59
2022-10-23T00:39:06.033Z,11.59
2022-10-23T00:41:09.993Z,11.61
2022-10-23T00:43:20.454Z,11.62
2022-10-23T00:45:26.652Z,11.66
2022-10-23T00:47:28.791Z,11.67
2022-10-23T00:49:32.478Z,11.68
2022-10-23T00:51:43.346Z,11.69
2022-10-23T00:54:00.965Z,11.70
2022-10-23T00:56:11.889Z,11.72
2022-10-23T00:58:18.444Z,11.72
2022-10-23T01:00:41.046Z,11.72
2022-10-23T01:02:43.341Z,11.72
2022-10-23T01:04:45.459Z,11.75
2022-10-23T01:06:49.812Z,11.77
2022-10-23T01:09:00.698Z,11.77
2022-10-23T01:11:15.254Z,11.79
2022-10-23T01:13:38.270Z,11.82
2022-10-23T01:16:02.895Z,11.84
2022-10-23T01:18:34.756Z,11.88
2022-10-23T01:20:43.724Z,11.88
2022-10-23T01:23:05.167Z,11.89
2022-10-23T01:25:36.185Z,11.90
2022-10-23T01:27:42.666Z,11.90
2022-10-23T01:29:49.952Z,11.91
2022-10-23T01:32:41.839Z,11.92
2022-10-23T01:34:43.699Z,11.93
2022-10-23T01:36:48.492Z,11.95
2022-10-23T01:38:57.302Z,11.96
2022-10-23T01:41:19.952Z,11.97
2022-10-23T01:43:30.380Z,11.96
2022-10-23T01:45:40.342Z,11.94
2022-10-23T01:47:43.692Z,11.94
2022-10-23T01:49:47.837Z,11.95
2022-10-23T01:51:54.573Z,11.93
2022-10-23T01:53:59.427Z,11.92
2022-10-23T01:56:05.979Z,11.89
2022-10-23T01:58:08.804Z,11.94
2022-10-23T02:00:14.404Z,11.96
2022-10-23T02:02:22.831Z,11.95
2022-10-23T02:04:36.729Z,11.94
2022-10-23T02:06:38.993Z,11.95
2022-10-23T02:08:40.998Z,11.94
2022-10-23T02:10:49.196Z,11.91
2022-10-23T02:12:58.425Z,11.89
2022-10-23T02:15:21.638Z,11.89
2022-10-23T02:17:46.465Z,11.86
2022-10-23T02:20:00.645Z,11.84
2022-10-23T02:22:11.027Z,11.86
2022-10-23T02:24:16.355Z,11.88
2022-10-23T02:26:24.395Z,11.88
2022-10-23T02:28:40.514Z,11.89
2022-10-23T02:30:46.692Z,11.89
2022-10-23T02:32:51.666Z,11.90
2022-10-23T02:34:53.632Z,11.90
2022-10-23T02:36:55.524Z,11.89
2022-10-23T02:38:57.681Z,11.88
2022-10-23T02:41:14.471Z,11.87
2022-10-23T02:43:34.353Z,11.90
2022-10-23T02:45:51.661Z,11.91
2022-10-23T02:48:04.332Z,11.90
2022-10-23T02:50:17.593Z,11.90
2022-10-23T02:52:28.526Z,11.88
2022-10-23T02:54:54.799Z,11.82
2022-10-23T02:57:40.099Z,11.82
2022-10-23T02:59:58.224Z,11.78
2022-10-23T03:02:16.694Z,11.72
2022-10-23T03:04:24.184Z,11.72
2022-10-23T03:06:26.667Z,11.70
2022-10-23T03:08:30.586Z,11.69
2022-10-23T03:10:32.657Z,11.70
2022-10-23T03:12:36.006Z,11.71
2022-10-23T03:14:41.014Z,11.68
2022-10-23T03:16:42.804Z,11.71
2022-10-23T03:18:44.900Z,11.69
2022-10-23T03:20:46.830Z,11.71
2022-10-23T03:22:48.986Z,11.70
2022-10-23T03:24:50.977Z,11.74
2022-10-23T03:26:52.788Z,11.78
2022-10-23T03:28:54.682Z,11.75
2022-10-23T03:30:56.562Z,11.73
2022-10-23T03:32:58.674Z,11.70
2022-10-23T03:35:00.759Z,11.64
2022-10-23T03:37:02.656Z,11.67
2022-10-23T03:39:05.698Z,11.68
2022-10-23T03:41:07.713Z,11.68
2022-10-23T03:43:09.620Z,11.67
2022-10-23T03:45:11.620Z,11.65
2022-10-23T03:47:13.768Z,11.65
2022-10-23T03:49:15.647Z,11.65
2022-10-23T03:51:17.465Z,11.60
2022-10-23T03:53:19.670Z,11.61
2022-10-23T03:55:21.804Z,11.58
2022-10-23T03:57:24.473Z,11.53
2022-10-23T03:59:26.372Z,11.55
2022-10-23T04:01:28.365Z,11.54
2022-10-23T04:03:30.275Z,11.52
2022-10-23T04:05:32.198Z,11.52
2022-10-23T04:07:34.207Z,11.52
2022-10-23T04:09:36.188Z,11.54
2022-10-23T04:11:39.049Z,11.57
2022-10-23T04:13:40.881Z,11.56
2022-10-23T04:15:49.749Z,11.59
2022-10-23T04:17:51.590Z,11.59
2022-10-23T04:19:53.481Z,11.58
2022-10-23T04:21:57.320Z,11.60
2022-10-23T04:23:59.113Z,11.59
2022-10-23T04:26:03.671Z,11.57
2022-10-23T04:28:05.747Z,11.55
2022-10-23T04:30:09.495Z,11.54
2022-10-23T04:32:11.435Z,11.55
2022-10-23T04:34:13.314Z,11.53
2022-10-23T04:36:15.386Z,11.51
2022-10-23T04:38:17.336Z,11.50
2022-10-23T04:40:19.265Z,11.46
2022-10-23T04:42:21.201Z,11.45
2022-10-23T04:44:23.166Z,11.44
2022-10-23T04:46:25.082Z,11.42
2022-10-23T04:48:29.117Z,11.37
2022-10-23T04:50:31.326Z,11.35
2022-10-23T04:52:33.343Z,11.32
2022-10-23T04:54:40.497Z,11.29
2022-10-23T04:56:42.413Z,11.27
2022-10-23T04:58:44.269Z,11.28
2022-10-23T05:00:47.337Z,11.25
2022-10-23T05:02:49.283Z,11.20
2022-10-23T05:04:51.332Z,11.19
2022-10-23T05:06:57.377Z,11.17
2022-10-23T05:08:59.365Z,11.16
2022-10-23T05:11:01.252Z,11.13
2022-10-23T05:13:04.151Z,11.12
2022-10-23T05:15:06.637Z,11.10
2022-10-23T05:17:21.243Z,11.07
2022-10-23T05:19:28.037Z,11.05
2022-10-23T05:21:35.601Z,11.04
2022-10-23T05:23:41.385Z,11.02
2022-10-23T05:25:43.294Z,11.01
2022-10-23T05:27:46.251Z,10.97
2022-10-23T05:29:48.098Z,10.94
2022-10-23T05:31:54.854Z,10.94
2022-10-23T05:33:57.128Z,10.91
2022-10-23T05:36:00.095Z,10.88
2022-10-23T05:38:02.775Z,10.80
2022-10-23T05:40:05.704Z,10.81
2022-10-23T05:42:07.752Z,10.73
2022-10-23T05:44:09.647Z,10.67
2022-10-23T05:46:11.511Z,10.63
2022-10-23T05:48:30.085Z,10.57
2022-10-23T05:50:38.896Z,10.51
2022-10-23T05:52:41.021Z,10.45
2022-10-23T05:54:46.032Z,10.41
2022-10-23T05:56:48.007Z,10.37
2022-10-23T05:58:49.975Z,10.38
2022-10-23T06:00:52.565Z,10.30
2022-10-23T06:02:54.432Z,10.34
2022-10-23T06:04:56.364Z,10.41
2022-10-23T06:06:58.329Z,10.44
2022-10-23T06:09:00.370Z,10.47
2022-10-23T06:11:07.868Z,10.49
2022-10-23T06:13:09.914Z,10.46
2022-10-23T06:15:12.141Z,10.45
2022-10-23T06:17:14.524Z,10.50
2022-10-23T06:19:16.458Z,10.46
2022-10-23T06:21:18.714Z,10.48
2022-10-23T06:23:20.675Z,10.52
2022-10-23T06:25:22.651Z,10.58
2022-10-23T06:27:24.547Z,10.63
2022-10-23T06:29:27.479Z,10.71
2022-10-23T06:31:29.332Z,10.75
2022-10-23T06:33:31.285Z,10.84
2022-10-23T06:35:33.198Z,10.89
2022-10-23T06:37:35.400Z,10.96
2022-10-23T06:39:37.322Z,11.02
2022-10-23T06:41:42.480Z,11.07
2022-10-23T06:43:44.797Z,11.13
2022-10-23T06:45:47.213Z,11.11
2022-10-23T06:47:52.308Z,11.14
2022-10-23T06:49:54.180Z,11.16
2022-10-23T06:51:56.178Z,11.24
2022-10-23T06:53:58.404Z,11.25
2022-10-23T06:56:01.384Z,11.28
2022-10-23T06:58:03.318Z,11.32
2022-10-23T07:00:05.832Z,11.37
2022-10-23T07:02:07.803Z,11.39
2022-10-23T07:04:09.863Z,11.42
2022-10-23T07:06:12.122Z,11.46
2022-10-23T07:08:14.820Z,11.49
2022-10-23T07:10:16.659Z,11.58
2022-10-23T07:12:18.637Z,11.60
2022-10-23T07:14:20.545Z,11.66
2022-10-23T07:16:23.919Z,11.69
2022-10-23T07:18:26.989Z,11.73
2022-10-23T07:20:28.959Z,11.73
2022-10-23T07:22:30.855Z,11.76
2022-10-23T07:24:37.203Z,11.80
2022-10-23T07:26:42.109Z,11.84
2022-10-23T07:28:46.669Z,11.98
2022-10-23T07:31:01.487Z,12.09
2022-10-23T07:33:04.501Z,12.22
2022-10-23T07:35:07.640Z,12.43
2022-10-23T07:37:09.645Z,12.62
2022-10-23T07:39:12.322Z,13.01
2022-10-23T07:41:14.537Z,13.17
2022-10-23T07:43:18.748Z,13.17
2022-10-23T07:45:20.704Z,13.19
2022-10-23T07:47:22.635Z,13.32
2022-10-23T07:49:24.529Z,13.62
2022-10-23T07:51:36.393Z,13.84
2022-10-23T07:53:39.032Z,13.73
2022-10-23T07:55:44.115Z,13.80
2022-10-23T07:57:46.104Z,13.68
2022-10-23T07:59:48.030Z,13.58
2022-10-23T08:01:52.704Z,13.50
2022-10-23T08:03:57.565Z,13.41
2022-10-23T08:06:00.193Z,13.37
2022-10-23T08:08:02.060Z,13.27
2022-10-23T08:10:04.385Z,13.23
2022-10-23T08:12:09.636Z,13.15
2022-10-23T08:14:11.585Z,13.18
2022-10-23T08:16:13.580Z,13.21
2022-10-23T08:18:16.261Z,13.24
2022-10-23T08:20:18.206Z,13.26
2022-10-23T08:22:20.090Z,13.30
2022-10-23T08:24:22.107Z,13.34
2022-10-23T08:26:25.431Z,13.37
2022-10-23T08:28:28.593Z,13.48
2022-10-23T08:30:30.864Z,13.45
2022-10-23T08:32:32.792Z,13.58
2022-10-23T08:34:34.791Z,13.88
2022-10-23T08:36:36.817Z,13.96
2022-10-23T08:38:38.790Z,13.93
2022-10-23T08:40:48.384Z,13.87
2022-10-23T08:43:11.472Z,13.94
2022-10-23T08:45:34.430Z,14.01
2022-10-23T08:47:55.983Z,13.99
2022-10-23T08:50:00.685Z,13.99
2022-10-23T08:52:14.157Z,13.92
2022-10-23T08:54:28.282Z,13.90
2022-10-23T08:56:44.449Z,13.91
2022-10-23T08:59:09.360Z,13.88
2022-10-23T09:01:28.916Z,13.92
2022-10-23T09:03:30.949Z,13.97
2022-10-23T09:05:55.725Z,14.06
2022-10-23T09:08:00.689Z,14.11
2022-10-23T09:10:14.501Z,14.12
2022-10-23T09:12:25.291Z,14.29
2022-10-23T09:14:42.645Z,14.33
2022-10-23T09:16:50.830Z,14.39
2022-10-23T09:18:54.463Z,14.29
2022-10-23T09:20:56.336Z,14.22
2022-10-23T09:23:01.329Z,14.23
2022-10-23T09:25:03.301Z,14.21
2022-10-23T09:29:19.637Z,14.30
2022-10-23T09:31:21.706Z,14.30
2022-10-23T09:33:26.604Z,14.34
2022-10-23T09:35:30.742Z,14.40
2022-10-23T09:37:36.204Z,14.48
2022-10-23T09:39:38.195Z,14.49
2022-10-23T09:41:40.792Z,14.47
2022-10-23T09:43:43.455Z,14.63
2022-10-23T09:46:06.228Z,14.75
2022-10-23T09:48:14.664Z,14.83
2022-10-23T09:50:23.728Z,14.81
2022-10-23T09:52:39.819Z,14.81
2022-10-23T09:54:47.693Z,14.75
2022-10-23T09:56:49.998Z,14.73
2022-10-23T09:59:02.099Z,14.77
2022-10-23T10:01:05.804Z,14.94
2022-10-23T10:03:19.150Z,15.08
2022-10-23T10:05:29.382Z,15.00
2022-10-23T10:07:33.484Z,14.83
2022-10-23T10:09:38.138Z,14.73
2022-10-23T10:12:10.748Z,14.57
2022-10-23T10:14:54.237Z,14.43
2022-10-23T10:17:17.670Z,14.33
2022-10-23T10:19:33.883Z,14.30
2022-10-23T10:21:59.020Z,14.28
2022-10-23T10:24:28.243Z,14.27
2022-10-23T10:26:59.343Z,14.29
2022-10-23T10:29:48.747Z,14.33
2022-10-23T10:32:15.384Z,14.35
2022-10-23T10:34:33.251Z,14.38
2022-10-23T10:36:54.994Z,14.43
2022-10-23T10:39:01.519Z,14.43
2022-10-23T10:41:20.576Z,14.49
2022-10-23T10:43:39.399Z,14.44
2022-10-23T10:46:03.980Z,14.36
2022-10-23T10:48:08.892Z,14.34
2022-10-23T10:50:16.789Z,14.26
2022-10-23T10:52:27.897Z,14.25
2022-10-23T10:54:54.323Z,14.22
2022-10-23T10:57:00.203Z,14.22
2022-10-23T10:59:10.897Z,14.22
2022-10-23T11:01:38.959Z,14.16
2022-10-23T11:03:52.569Z,14.16
2022-10-23T11:08:44.440Z,14.14
2022-10-23T11:11:16.884Z,14.19
2022-10-23T11:13:29.513Z,14.25
2022-10-23T11:15:41.117Z,14.34
2022-10-23T11:17:49.387Z,14.48
2022-10-23T11:20:06.401Z,14.59
2022-10-23T11:22:17.207Z,14.91
2022-10-23T11:24:21.991Z,15.24
2022-10-23T11:26:42.272Z,15.36
2022-10-23T11:29:03.368Z,15.57
2022-10-23T11:31:14.436Z,15.32
2022-10-23T11:33:22.103Z,15.22
2022-10-23T11:35:45.757Z,15.14
2022-10-23T11:38:13.104Z,15.09
2022-10-23T11:40:26.001Z,15.05
2022-10-23T11:42:45.808Z,15.07
2022-10-23T11:44:50.963Z,15.13
2022-10-23T11:47:05.918Z,15.27
2022-10-23T11:49:21.223Z,15.25
2022-10-23T11:51:38.317Z,15.18
2022-10-23T11:53:40.884Z,15.17
2022-10-23T11:55:58.471Z,15.11
2022-10-23T11:58:31.971Z,15.10
2022-10-23T12:00:40.198Z,15.08
2022-10-23T12:02:43.643Z,15.11
2022-10-23T12:04:52.164Z,15.10
2022-10-23T12:07:01.833Z,15.15
2022-10-23T12:09:09.573Z,14.85
2022-10-23T12:11:51.630Z,14.69
2022-10-23T12:13:53.801Z,14.65
2022-10-23T12:15:58.525Z,14.61
2022-10-23T12:18:16.719Z,14.69
2022-10-23T12:20:24.728Z,14.64
2022-10-23T12:25:04.256Z,14.54
2022-10-23T12:27:26.813Z,14.46
2022-10-23T12:30:15.935Z,14.43
2022-10-23T12:32:28.103Z,14.43
2022-10-23T12:34:29.988Z,14.44
2022-10-23T12:36:43.931Z,14.47
2022-10-23T12:38:47.432Z,14.48
2022-10-23T12:41:03.110Z,14.48
2022-10-23T12:43:23.560Z,14.51
2022-10-23T12:45:29.524Z,14.53
2022-10-23T12:47:32.334Z,14.56
2022-10-23T12:49:35.739Z,14.62
2022-10-23T12:51:38.640Z,14.62
2022-10-23T12:53:41.525Z,14.59
2022-10-23T12:56:01.539Z,14.61
2022-10-23T12:58:04.432Z,14.60
2022-10-23T13:00:12.578Z,14.62
2022-10-23T13:02:21.986Z,14.62
2022-10-23T13:04:28.154Z,14.59
2022-10-23T13:06:30.215Z,14.57
2022-10-23T13:08:45.332Z,14.56
2022-10-23T13:10:49.666Z,14.59
2022-10-23T13:13:05.057Z,14.53
2022-10-23T13:15:06.893Z,14.52
2022-10-23T13:17:11.730Z,14.54
2022-10-23T13:19:27.567Z,14.50
2022-10-23T13:21:31.046Z,14.47
2022-10-23T13:23:35.066Z,14.44
2022-10-23T13:25:39.337Z,14.42
2022-10-23T13:27:41.856Z,14.38
2022-10-23T13:29:44.055Z,14.38
2022-10-23T13:31:46.352Z,14.34
2022-10-23T13:34:01.347Z,14.32
2022-10-23T13:36:05.513Z,14.31
2022-10-23T13:38:11.665Z,14.33
2022-10-23T13:40:28.322Z,14.38
2022-10-23T13:42:30.288Z,14.42
2022-10-23T13:44:37.688Z,14.41
2022-10-23T13:46:39.872Z,14.43
2022-10-23T13:48:41.893Z,14.44
2022-10-23T13:50:47.030Z,14.42
2022-10-23T13:52:49.209Z,14.42
2022-10-23T13:54:51.254Z,14.36
2022-10-23T13:56:56.122Z,14.33
2022-10-23T13:59:00.418Z,14.31
2022-10-23T14:01:02.989Z,14.26
2022-10-23T14:03:05.786Z,14.26
2022-10-23T14:05:10.199Z,14.23
2022-10-23T14:07:12.251Z,14.20
2022-10-23T14:09:17.154Z,14.19
2022-10-23T14:11:21.570Z,14.17
2022-10-23T14:13:24.801Z,14.13
2022-10-23T14:15:27.337Z,14.10
2022-10-23T14:17:29.337Z,14.09
2022-10-23T14:19:33.502Z,14.08
2022-10-23T14:21:35.609Z,14.05
2022-10-23T14:23:38.109Z,14.00
2022-10-23T14:25:40.458Z,13.97
2022-10-23T14:27:42.865Z,13.93
2022-10-23T14:29:45.201Z,13.91
2022-10-23T14:31:47.189Z,13.87
2022-10-23T14:33:57.308Z,13.85
2022-10-23T14:35:59.546Z,13.82
2022-10-23T14:38:01.810Z,13.80
2022-10-23T14:40:05.881Z,13.79
2022-10-23T14:42:07.889Z,13.76
2022-10-23T14:44:10.900Z,13.71
2022-10-23T14:46:16.338Z,13.70
2022-10-23T14:48:18.769Z,13.70
2022-10-23T14:50:21.749Z,13.67
2022-10-23T14:52:24.707Z,13.63
2022-10-23T14:54:28.860Z,13.62
2022-10-23T14:56:34.467Z,13.60
2022-10-23T14:58:36.551Z,13.57
2022-10-23T15:00:39.742Z,13.57
2022-10-23T15:02:42.014Z,13.53
2022-10-23T15:04:44.472Z,13.50
2022-10-23T15:06:47.506Z,13.47
2022-10-23T15:08:55.874Z,13.48
2022-10-23T15:11:01.767Z,13.48
2022-10-23T15:13:03.743Z,13.46
2022-10-23T15:15:07.669Z,13.44
2022-10-23T15:17:15.372Z,13.41
2022-10-23T15:19:18.851Z,13.40
2022-10-23T15:21:21.131Z,13.38
2022-10-23T15:23:23.666Z,13.35
2022-10-23T15:25:27.595Z,13.32
2022-10-23T15:27:29.728Z,13.32
2022-10-23T15:29:32.221Z,13.28
2022-10-23T15:31:41.161Z,13.29
2022-10-23T15:33:43.253Z,13.30
2022-10-23T15:35:45.669Z,13.28
2022-10-23T15:37:47.733Z,13.25
2022-10-23T15:39:50.710Z,13.22
2022-10-23T15:41:56.359Z,13.24
2022-10-23T15:44:00.039Z,13.20
2022-10-23T15:46:03.487Z,13.18
2022-10-23T15:48:06.165Z,13.17
2022-10-23T15:50:09.072Z,13.16
2022-10-23T15:52:11.922Z,13.10
2022-10-23T15:54:17.303Z,13.09
2022-10-23T15:56:19.293Z,13.08
2022-10-23T15:58:22.570Z,13.10
2022-10-23T16:00:24.925Z,13.06
2022-10-23T16:02:27.553Z,13.06
2022-10-23T16:04:30.325Z,13.03
2022-10-23T16:06:32.485Z,13.03
2022-10-23T16:08:35.803Z,12.99
2022-10-23T16:10:42.271Z,12.96
2022-10-23T16:12:44.422Z,12.93
2022-10-23T16:14:47.371Z,12.91
2022-10-23T16:16:49.759Z,12.89
2022-10-23T16:18:52.332Z,12.88
2022-10-23T16:20:56.218Z,12.86
2022-10-23T16:23:01.993Z,12.78
2022-10-23T16:25:05.324Z,12.72
2022-10-23T16:27:07.601Z,12.61
2022-10-23T16:29:11.811Z,12.58
2022-10-23T16:31:20.800Z,12.51
2022-10-23T16:33:22.992Z,12.44
2022-10-23T16:35:25.608Z,12.27
2022-10-23T16:37:27.942Z,12.26
2022-10-23T16:39:31.741Z,12.24
2022-10-23T16:41:34.002Z,12.21
2022-10-23T16:43:37.706Z,12.16
2022-10-23T16:45:40.218Z,12.16
2022-10-23T16:47:45.564Z,12.10
2022-10-23T16:49:50.051Z,12.09
2022-10-23T16:51:54.682Z,12.13
2022-10-23T16:54:00.177Z,12.14
2022-10-23T16:56:11.551Z,12.17
2022-10-23T16:58:20.531Z,12.13
2022-10-23T17:00:23.779Z,12.17
2022-10-23T17:02:27.425Z,12.12
2022-10-23T17:04:29.885Z,12.06
2022-10-23T17:06:36.527Z,12.03
2022-10-23T17:08:42.698Z,12.08
2022-10-23T17:10:50.237Z,12.05
2022-10-23T17:12:54.264Z,12.04
2022-10-23T17:15:02.577Z,12.09
2022-10-23T17:17:19.974Z,12.15
2022-10-23T17:19:43.808Z,12.18
2022-10-23T17:21:55.713Z,12.18
2022-10-23T17:23:59.412Z,12.23
2022-10-23T17:26:04.483Z,12.21
2022-10-23T17:28:06.923Z,12.24
2022-10-23T17:30:12.880Z,12.21
2022-10-23T17:32:17.232Z,12.01
2022-10-23T17:34:23.794Z,11.87
2022-10-23T17:36:29.927Z,11.84
2022-10-23T17:38:36.507Z,11.81
2022-10-23T17:40:40.548Z,11.77
2022-10-23T17:42:43.117Z,11.70
2022-10-23T17:44:50.725Z,11.76
2022-10-23T17:46:55.421Z,11.66
2022-10-23T17:51:07.991Z,11.75
2022-10-23T17:53:11.772Z,11.71
2022-10-23T17:55:15.043Z,11.73
2022-10-23T17:57:20.971Z,11.70
2022-10-23T17:59:30.305Z,11.74
2022-10-23T18:01:34.062Z,11.71
2022-10-23T18:03:37.638Z,11.74
2022-10-23T18:05:41.455Z,11.77
2022-10-23T18:07:49.175Z,11.80
2022-10-23T18:09:54.696Z,11.83
2022-10-23T18:12:00.284Z,11.84
2022-10-23T18:14:04.935Z,11.85
2022-10-23T18:16:12.520Z,11.81
2022-10-23T18:18:25.147Z,11.76
2022-10-23T18:20:33.056Z,11.70
2022-10-23T18:22:35.920Z,11.57
2022-10-23T18:24:41.100Z,11.51
2022-10-23T18:26:45.674Z,11.37
2022-10-23T18:28:51.344Z,11.22
2022-10-23T18:30:57.603Z,11.04
2022-10-23T18:33:10.250Z,10.82
2022-10-23T18:35:16.193Z,10.69
2022-10-23T18:37:19.964Z,10.61
2022-10-23T18:39:29.220Z,10.64
2022-10-23T18:41:39.862Z,10.60
2022-10-23T18:43:58.688Z,10.46
2022-10-23T18:46:09.439Z,10.49
2022-10-23T18:48:28.431Z,10.58
2022-10-23T18:50:36.154Z,10.63
2022-10-23T18:52:39.680Z,10.62
2022-10-23T18:54:43.485Z,10.68
2022-10-23T18:56:54.292Z,10.70
2022-10-23T18:58:58.770Z,10.55
2022-10-23T19:01:04.297Z,10.48
2022-10-23T19:03:18.018Z,10.35
2022-10-23T19:05:21.031Z,10.02
2022-10-23T19:07:24.571Z,10.02
2022-10-23T19:09:27.226Z,9.89
2022-10-23T19:11:29.938Z,9.99
2022-10-23T19:13:39.823Z,9.92
2022-10-23T19:15:44.290Z,9.84
2022-10-23T19:18:02.024Z,9.90
2022-10-23T19:22:37.845Z,9.83
2022-10-23T19:24:52.212Z,9.76
2022-10-23T19:27:01.894Z,9.68
2022-10-23T19:29:08.023Z,9.44
2022-10-23T19:31:17.827Z,9.29
2022-10-23T19:33:31.567Z,9.15
2022-10-23T19:35:34.427Z,9.19
2022-10-23T19:37:48.941Z,9.32
2022-10-23T19:40:07.389Z,9.21
2022-10-23T19:42:11.672Z,9.36
2022-10-23T19:44:17.880Z,9.40
2022-10-23T19:46:25.457Z,9.15
2022-10-23T19:48:36.041Z,9.06
2022-10-23T19:50:38.546Z,8.85
2022-10-23T19:52:44.703Z,8.62
2022-10-23T19:54:59.526Z,8.72
2022-10-23T19:57:08.551Z,8.76
2022-10-23T19:59:13.772Z,8.66
2022-10-23T20:01:18.526Z,8.68
2022-10-23T20:03:22.683Z,8.66
2022-10-23T20:05:31.984Z,8.61
2022-10-23T20:07:46.652Z,8.47
2022-10-23T20:09:50.159Z,8.41
2022-10-23T20:11:54.770Z,8.44
2022-10-23T20:14:00.537Z,8.39
2022-10-23T20:16:03.221Z,8.48
2022-10-23T20:18:09.728Z,8.48
2022-10-23T20:20:15.506Z,8.20
2022-10-23T20:22:21.110Z,8.12
2022-10-23T20:24:28.074Z,8.16
2022-10-23T20:26:30.952Z,8.24
2022-10-23T20:28:37.033Z,8.26
2022-10-23T20:30:43.149Z,8.11
2022-10-23T20:32:48.746Z,8.10
2022-10-23T20:34:53.556Z,8.04
2022-10-23T20:36:56.337Z,7.86
2022-10-23T20:39:01.363Z,7.97
2022-10-23T20:41:07.640Z,8.13
2022-10-23T20:43:10.026Z,8.14
2022-10-23T20:45:12.134Z,8.14
2022-10-23T20:47:17.470Z,8.11
2022-10-23T20:49:20.235Z,8.02
2022-10-23T20:51:24.242Z,7.93
2022-10-23T20:53:27.508Z,8.00
2022-10-23T20:55:29.840Z,7.76
2022-10-23T20:57:32.299Z,7.96
2022-10-23T20:59:37.516Z,7.85
2022-10-23T21:01:42.530Z,7.80
2022-10-23T21:03:51.350Z,7.65
2022-10-23T21:05:53.709Z,7.81
2022-10-23T21:07:56.314Z,7.83
2022-10-23T21:09:59.613Z,7.89
2022-10-23T21:12:01.584Z,7.97
2022-10-23T21:14:04.016Z,7.96
2022-10-23T21:16:14.997Z,7.73
2022-10-23T21:18:33.645Z,7.54
2022-10-23T21:20:40.623Z,7.42
2022-10-23T21:22:42.684Z,7.44
2022-10-23T21:24:45.365Z,7.54
2022-10-23T21:26:47.890Z,7.56
2022-10-23T21:28:56.385Z,7.86
2022-10-23T21:31:13.999Z,7.72
2022-10-23T21:33:16.078Z,8.14
2022-10-23T21:35:17.948Z,8.25
2022-10-23T21:37:22.144Z,7.91
2022-10-23T21:39:24.207Z,7.74
2022-10-23T21:41:32.094Z,7.61
2022-10-23T21:43:34.906Z,7.56
2022-10-23T21:45:36.953Z,7.59
2022-10-23T21:47:39.116Z,7.91
2022-10-23T21:49:41.006Z,8.34
2022-10-23T21:51:43.328Z,8.35
2022-10-23T21:53:45.295Z,8.37
2022-10-23T21:55:47.300Z,8.27
2022-10-23T21:57:49.493Z,8.32
2022-10-23T21:59:54.254Z,7.95
2022-10-23T22:01:56.505Z,8.06
2022-10-23T22:03:58.830Z,8.59
2022-10-23T22:06:01.749Z,8.86
2022-10-23T22:08:04.211Z,8.81
2022-10-23T22:10:07.634Z,8.86
2022-10-23T22:12:12.829Z,8.96
2022-10-23T22:14:14.733Z,9.02
2022-10-23T22:16:17.833Z,9.08
2022-10-23T22:18:19.921Z,9.07
2022-10-23T22:20:21.856Z,9.18
2022-10-23T22:22:24.057Z,9.19
2022-10-23T22:24:26.034Z,9.21
2022-10-23T22:26:31.293Z,9.20
2022-10-23T22:28:33.354Z,9.21
2022-10-23T22:30:38.196Z,9.17
2022-10-23T22:32:40.268Z,9.18
2022-10-23T22:34:52.362Z,9.19
2022-10-23T22:36:56.573Z,9.15
2022-10-23T22:38:58.560Z,9.17
2022-10-23T22:41:02.248Z,9.17
2022-10-23T22:43:07.607Z,9.13
2022-10-23T22:45:10.830Z,9.09
2022-10-23T22:47:12.737Z,9.07
2022-10-23T22:49:14.889Z,9.04
2022-10-23T22:51:19.180Z,8.99
2022-10-23T22:53:21.173Z,8.91
2022-10-23T22:55:24.148Z,8.87
2022-10-23T22:59:29.107Z,8.77
2022-10-23T23:01:35.202Z,8.77
2022-10-23T23:03:37.746Z,8.75
2022-10-23T23:05:47.885Z,8.78
2022-10-23T23:07:50.973Z,8.73
2022-10-23T23:09:55.561Z,8.69
2022-10-23T23:11:58.007Z,8.69
2022-10-23T23:14:01.279Z,8.61
2022-10-23T23:16:04.546Z,8.49
2022-10-23T23:18:06.868Z,8.49
2022-10-23T23:20:09.559Z,8.53
2022-10-23T23:22:11.452Z,8.52
2022-10-23T23:24:13.487Z,8.56
2022-10-23T23:26:16.313Z,8.62
2022-10-23T23:28:21.442Z,8.60
2022-10-23T23:30:23.788Z,8.58
2022-10-23T23:32:25.778Z,8.63
2022-10-23T23:34:27.939Z,8.54
2022-10-23T23:36:30.038Z,8.75
2022-10-23T23:38:31.912Z,8.76
2022-10-23T23:40:34.212Z,8.72
2022-10-23T23:42:37.166Z,8.69
2022-10-23T23:44:45.951Z,8.72
2022-10-23T23:46:58.830Z,8.73
2022-10-23T23:49:01.812Z,8.76
2022-10-23T23:51:04.861Z,8.84
2022-10-23T23:53:06.883Z,8.86
2022-10-23T23:55:09.231Z,8.83
2022-10-23T23:57:13.174Z,8.79
2022-10-23T23:59:16.255Z,8.84
